Time;durP1;ratioP1;P1;durP2;ratioP2;P2;SDS_P1;SDS_P2;PMS_P1;PMS_P2;Temp;Humidity;BMP_temperature;BMP_pressure;BME280_temperature;BME280_humidity;BME280_pressure;Samples;Min_cycle;Max_cycle;Signal;HPM_P1;HPM_P2
2024/02/10 00:01:34;;;;;;;6.28;1.27;;;11.80;99.90;;;;;;5044360;23;20174;-92
2024/02/10 00:03:35;;;;;;;7.35;1.00;;;11.80;99.90;;;;;;5044794;23;20249;-92
2024/02/10 00:05:36;;;;;;;2.95;0.57;;;11.80;99.90;;;;;;5045630;23;20154;-93
2024/02/10 00:07:37;;;;;;;2.00;0.95;;;11.70;99.90;;;;;;5068791;23;20688;-92
2024/02/10 00:09:39;;;;;;;2.13;0.57;;;11.70;99.90;;;;;;5045084;23;20229;-92
2024/02/10 00:11:41;;;;;;;2.33;0.68;;;11.60;99.90;;;;;;5045138;23;20164;-91
2024/02/10 00:13:42;;;;;;;3.88;0.55;;;11.70;99.90;;;;;;5044857;23;20173;-92
2024/02/10 00:15:45;;;;;;;22.73;1.35;;;11.70;99.90;;;;;;5069445;23;20526;-93
2024/02/10 00:17:46;;;;;;;9.15;1.58;;;11.60;99.90;;;;;;5045250;23;20178;-93
2024/02/10 00:19:49;;;;;;;3.53;1.40;;;11.50;99.90;;;;;;5068857;23;20624;-93
2024/02/10 00:21:49;;;;;;;0.98;0.55;;;11.60;99.90;;;;;;5044534;23;20277;-93
2024/02/10 00:23:50;;;;;;;3.60;1.30;;;11.50;99.90;;;;;;5044789;23;20490;-91
2024/02/10 00:25:54;;;;;;;4.30;0.70;;;11.40;99.90;;;;;;5044655;23;20516;-93
2024/02/10 00:27:55;;;;;;;3.17;1.05;;;11.40;99.90;;;;;;5044698;23;20253;-94
2024/02/10 00:29:56;;;;;;;2.10;0.55;;;11.50;99.90;;;;;;5069126;23;20165;-92
2024/02/10 00:31:58;;;;;;;6.22;1.42;;;11.40;99.90;;;;;;5044541;23;20601;-93
2024/02/10 00:34:00;;;;;;;2.80;1.00;;;11.40;99.90;;;;;;5068962;23;20553;-93
2024/02/10 00:36:01;;;;;;;1.52;0.60;;;11.40;99.90;;;;;;5044878;23;20577;-93
2024/02/10 00:38:03;;;;;;;3.22;0.57;;;11.40;99.90;;;;;;5044453;23;20178;-93
2024/02/10 00:40:05;;;;;;;3.90;1.05;;;11.40;99.90;;;;;;5044840;23;20154;-93
2024/02/10 00:42:07;;;;;;;2.38;0.60;;;11.40;99.90;;;;;;5044913;23;20190;-92
2024/02/10 00:44:07;;;;;;;2.60;0.70;;;11.30;99.90;;;;;;5044466;23;20168;-92
2024/02/10 00:46:10;;;;;;;1.75;0.85;;;11.30;99.90;;;;;;5044588;23;20158;-92
2024/02/10 00:48:11;;;;;;;1.30;0.68;;;11.20;99.90;;;;;;5044179;23;20189;-92
2024/02/10 00:50:13;;;;;;;1.27;0.70;;;11.20;99.90;;;;;;5045050;23;20158;-92
2024/02/10 00:52:18;;;;;;;2.90;0.90;;;11.20;99.90;;;;;;5069216;23;20146;-92
2024/02/10 00:54:27;;;;;;;4.78;1.30;;;11.20;99.90;;;;;;5045075;23;20166;-93
2024/02/10 00:56:28;;;;;;;0.90;0.43;;;11.30;99.90;;;;;;5045005;23;20189;-92
2024/02/10 00:58:29;;;;;;;3.30;1.30;;;11.20;99.90;;;;;;5044749;23;20186;-93
2024/02/10 01:00:31;;;;;;;2.97;1.73;;;11.20;99.90;;;;;;5044751;23;20237;-92
2024/02/10 01:02:32;;;;;;;4.18;1.33;;;11.20;99.90;;;;;;5044775;23;20150;-92
2024/02/10 01:04:33;;;;;;;4.82;1.35;;;11.20;99.90;;;;;;5068886;23;20173;-93
2024/02/10 01:06:35;;;;;;;4.13;1.30;;;11.30;99.90;;;;;;5044441;23;20173;-93
2024/02/10 01:08:36;;;;;;;5.45;1.00;;;11.20;99.90;;;;;;5044510;23;20284;-93
2024/02/10 01:10:37;;;;;;;3.55;0.90;;;11.20;99.90;;;;;;5069260;23;20203;-94
2024/02/10 01:12:38;;;;;;;5.00;1.25;;;11.20;99.90;;;;;;5044904;23;20158;-94
2024/02/10 01:14:40;;;;;;;4.03;1.25;;;11.20;99.90;;;;;;5044656;23;20618;-92
2024/02/10 01:16:44;;;;;;;1.92;0.60;;;11.20;99.90;;;;;;5045657;23;20218;-93
2024/02/10 01:18:48;;;;;;;1.95;0.68;;;11.20;99.90;;;;;;5044319;23;20162;-92
2024/02/10 01:20:49;;;;;;;2.28;1.00;;;11.10;99.90;;;;;;5044500;23;20154;-92
2024/02/10 01:22:50;;;;;;;2.50;0.80;;;11.20;99.90;;;;;;5044396;23;20198;-93
2024/02/10 01:24:55;;;;;;;4.10;0.68;;;11.20;99.90;;;;;;5044583;23;20159;-93
2024/02/10 01:26:56;;;;;;;2.33;0.60;;;11.20;99.90;;;;;;5069068;23;20169;-92
2024/02/10 01:28:57;;;;;;;1.17;0.50;;;11.30;99.90;;;;;;5068703;23;20201;-92
2024/02/10 01:30:58;;;;;;;1.95;0.60;;;11.40;99.90;;;;;;5044482;23;20150;-93
2024/02/10 01:32:59;;;;;;;5.15;0.60;;;11.20;99.90;;;;;;5044215;23;20170;-92
2024/02/10 01:35:03;;;;;;;3.90;0.63;;;11.10;99.90;;;;;;5044694;23;20205;-94
2024/02/10 01:37:04;;;;;;;1.73;0.60;;;11.10;99.90;;;;;;5044512;23;20170;-92
2024/02/10 01:39:05;;;;;;;6.40;0.70;;;11.00;99.90;;;;;;5044578;23;20198;-92
2024/02/10 01:41:06;;;;;;;3.70;1.27;;;11.00;99.90;;;;;;5044601;23;20167;-94
2024/02/10 01:43:07;;;;;;;1.67;0.43;;;11.00;99.90;;;;;;5044195;23;20153;-93
2024/02/10 01:45:11;;;;;;;4.30;0.73;;;10.80;99.90;;;;;;5044257;23;20517;-91
2024/02/10 01:47:15;;;;;;;1.80;0.80;;;10.80;99.90;;;;;;5045350;23;20181;-93
2024/02/10 01:49:17;;;;;;;1.17;0.60;;;10.80;99.90;;;;;;5045798;23;20259;-92
2024/02/10 01:51:19;;;;;;;2.08;0.55;;;10.90;99.90;;;;;;5046363;23;20241;-93
2024/02/10 01:53:20;;;;;;;3.08;0.85;;;10.90;99.90;;;;;;5045822;23;20648;-94
2024/02/10 01:55:21;;;;;;;0.25;0.20;;;10.70;99.90;;;;;;5047426;23;20154;-93
2024/02/10 01:57:22;;;;;;;1.17;0.63;;;10.70;99.90;;;;;;5045800;23;20178;-93
2024/02/10 01:59:23;;;;;;;3.78;0.73;;;10.70;99.90;;;;;;5069844;23;20168;-92
2024/02/10 02:01:24;;;;;;;2.92;0.80;;;10.70;99.90;;;;;;5045994;23;20638;-92
2024/02/10 02:03:26;;;;;;;2.75;1.10;;;10.70;99.90;;;;;;5070031;23;20161;-92
2024/02/10 02:05:32;;;;;;;4.72;0.73;;;10.70;99.90;;;;;;5045831;23;20173;-93
2024/02/10 02:07:33;;;;;;;3.40;0.68;;;10.80;99.90;;;;;;5045459;23;20182;-92
2024/02/10 02:09:34;;;;;;;1.38;0.35;;;10.70;99.90;;;;;;5045829;23;20258;-93
2024/02/10 02:11:49;;;;;;;1.45;0.77;;;10.80;99.90;;;;;;5046296;23;20158;-94
2024/02/10 02:13:50;;;;;;;4.55;1.13;;;10.90;99.90;;;;;;5046330;23;20154;-93
2024/02/10 02:15:57;;;;;;;3.97;1.15;;;10.90;99.90;;;;;;5045836;23;20496;-93
2024/02/10 02:17:58;;;;;;;4.50;1.45;;;11.00;99.90;;;;;;5046264;23;20186;-93
2024/02/10 02:19:59;;;;;;;8.10;1.77;;;11.00;99.90;;;;;;5045875;23;20224;-92
2024/02/10 02:22:01;;;;;;;2.47;0.65;;;11.00;99.90;;;;;;5070140;23;20165;-93
2024/02/10 02:24:02;;;;;;;4.05;1.60;;;10.90;99.90;;;;;;5046029;23;20150;-93
2024/02/10 02:26:03;;;;;;;2.60;0.80;;;10.80;99.90;;;;;;5045891;23;20558;-94
2024/02/10 02:28:04;;;;;;;2.42;0.65;;;10.90;99.90;;;;;;5045329;23;20250;-93
2024/02/10 02:30:05;;;;;;;3.03;1.00;;;10.90;99.90;;;;;;5046095;23;20245;-93
2024/02/10 02:32:08;;;;;;;5.40;1.05;;;10.90;99.90;;;;;;5045222;23;20237;-95
2024/02/10 02:34:10;;;;;;;5.25;1.10;;;10.80;99.90;;;;;;5069935;23;20157;-93
2024/02/10 02:36:11;;;;;;;7.05;1.02;;;10.70;99.90;;;;;;5045757;23;20173;-93
2024/02/10 02:38:13;;;;;;;2.58;0.82;;;10.80;99.90;;;;;;5045629;23;20178;-93
2024/02/10 02:40:16;;;;;;;4.30;1.00;;;10.70;99.90;;;;;;5045862;23;20477;-92
2024/02/10 02:42:17;;;;;;;2.28;0.70;;;10.60;99.90;;;;;;5070103;23;20220;-93
2024/02/10 02:44:18;;;;;;;1.75;0.57;;;10.70;99.90;;;;;;5069405;23;20517;-93
2024/02/10 02:46:18;;;;;;;4.72;0.52;;;10.60;99.90;;;;;;5046334;23;20155;-93
2024/02/10 02:48:19;;;;;;;2.38;0.77;;;10.60;99.90;;;;;;5045364;23;20201;-93
2024/02/10 02:50:24;;;;;;;0.85;0.38;;;10.50;99.90;;;;;;5045538;23;20155;-92
2024/02/10 02:52:30;;;;;;;2.20;0.80;;;10.50;99.90;;;;;;5045737;23;20169;-92
2024/02/10 02:54:33;;;;;;;2.65;0.85;;;10.50;99.90;;;;;;5045237;23;20154;-93
2024/02/10 02:56:35;;;;;;;2.40;1.10;;;10.40;99.90;;;;;;5045458;23;20158;-92
2024/02/10 02:58:35;;;;;;;8.73;1.30;;;10.50;99.90;;;;;;5044743;23;20183;-93
2024/02/10 03:00:38;;;;;;;3.83;0.70;;;10.50;99.90;;;;;;5069458;23;20572;-94
2024/02/10 03:02:42;;;;;;;6.05;0.85;;;10.40;99.90;;;;;;5045946;23;20250;-92
2024/02/10 03:04:43;;;;;;;5.05;1.10;;;10.40;99.90;;;;;;5045314;23;20509;-93
2024/02/10 03:06:44;;;;;;;6.55;1.00;;;10.50;99.90;;;;;;5069486;23;20149;-93
2024/02/10 03:08:47;;;;;;;2.22;0.90;;;10.50;99.90;;;;;;5045680;23;20186;-93
2024/02/10 03:10:48;;;;;;;2.90;0.60;;;10.50;99.90;;;;;;5069655;23;20164;-94
2024/02/10 03:12:49;;;;;;;3.55;0.77;;;10.50;99.90;;;;;;5045521;23;20209;-92
2024/02/10 03:14:50;;;;;;;2.30;0.95;;;10.60;99.90;;;;;;5045049;23;20157;-92
2024/02/10 03:16:52;;;;;;;4.47;0.57;;;10.80;99.90;;;;;;5069503;23;20162;-93
2024/02/10 03:18:52;;;;;;;2.97;0.82;;;10.70;99.90;;;;;;5046441;23;20510;-93
2024/02/10 03:20:54;;;;;;;3.28;0.93;;;10.60;99.90;;;;;;5045459;23;20166;-95
2024/02/10 03:23:01;;;;;;;3.20;0.70;;;10.50;99.90;;;;;;5045126;23;20154;-93
2024/02/10 03:25:03;;;;;;;3.42;0.90;;;10.50;99.90;;;;;;5044918;23;20217;-94
2024/02/10 03:27:05;;;;;;;1.58;0.50;;;10.60;99.90;;;;;;5069332;23;20181;-93
2024/02/10 03:29:06;;;;;;;0.80;0.52;;;10.70;99.90;;;;;;5045311;23;20197;-91
2024/02/10 03:31:07;;;;;;;5.47;0.52;;;10.70;99.90;;;;;;5045208;23;20649;-92
2024/02/10 03:33:08;;;;;;;1.08;0.35;;;10.60;99.90;;;;;;5045136;23;20170;-93
2024/02/10 03:35:09;;;;;;;1.05;0.60;;;10.60;99.90;;;;;;5046768;23;20229;-92
2024/02/10 03:37:12;;;;;;;1.40;0.40;;;10.50;99.90;;;;;;5045016;23;20210;-92
2024/02/10 03:39:13;;;;;;;3.67;0.40;;;10.40;99.90;;;;;;5045079;23;20158;-94
2024/02/10 03:41:15;;;;;;;1.95;0.40;;;10.50;99.90;;;;;;5045117;23;20180;-93
2024/02/10 03:43:17;;;;;;;2.10;0.57;;;10.50;99.90;;;;;;5045006;23;20162;-93
2024/02/10 03:45:18;;;;;;;0.73;0.30;;;10.50;99.90;;;;;;5045143;23;20154;-93
2024/02/10 03:47:19;;;;;;;2.17;0.50;;;10.60;99.90;;;;;;5044825;23;20680;-93
2024/02/10 03:49:20;;;;;;;3.83;0.82;;;10.50;99.90;;;;;;5044753;23;20205;-92
2024/02/10 03:51:21;;;;;;;1.08;0.73;;;10.50;99.90;;;;;;5045378;23;20151;-93
2024/02/10 03:53:24;;;;;;;3.17;0.40;;;10.50;99.90;;;;;;5044797;23;20172;-93
2024/02/10 03:55:25;;;;;;;1.42;0.50;;;10.50;99.90;;;;;;5045269;23;20159;-94
2024/02/10 03:57:28;;;;;;;3.75;0.73;;;10.50;99.90;;;;;;5045372;23;20181;-93
2024/02/10 03:59:30;;;;;;;0.60;0.45;;;10.80;99.90;;;;;;5044927;23;20641;-93
2024/02/10 04:01:30;;;;;;;2.22;0.38;;;10.70;99.90;;;;;;5044844;23;20205;-93
2024/02/10 04:03:32;;;;;;;1.23;0.50;;;10.80;99.90;;;;;;5044814;23;20187;-93
2024/02/10 04:05:34;;;;;;;1.98;0.40;;;10.90;99.90;;;;;;5044957;23;20150;-94
2024/02/10 04:07:38;;;;;;;1.38;0.52;;;11.20;99.90;;;;;;5044667;23;20189;-93
2024/02/10 04:09:40;;;;;;;5.80;0.70;;;11.40;99.90;;;;;;5045246;23;20225;-93
2024/02/10 04:11:41;;;;;;;4.28;0.60;;;11.40;99.90;;;;;;5044756;23;20241;-93
2024/02/10 04:13:43;;;;;;;1.25;0.63;;;11.40;99.90;;;;;;5044758;23;20601;-94
2024/02/10 04:15:44;;;;;;;1.63;0.70;;;11.30;99.90;;;;;;5044987;23;20169;-93
2024/02/10 04:17:49;;;;;;;1.50;0.40;;;11.20;99.90;;;;;;5069485;23;20182;-93
2024/02/10 04:19:53;;;;;;;1.08;0.65;;;11.20;99.90;;;;;;5045902;23;20158;-92
2024/02/10 04:21:54;;;;;;;3.25;0.70;;;11.30;99.90;;;;;;5045196;23;20159;-93
2024/02/10 04:23:57;;;;;;;0.85;0.40;;;11.30;99.90;;;;;;5045015;23;20166;-94
2024/02/10 04:25:58;;;;;;;1.00;0.50;;;11.40;99.90;;;;;;5045908;23;20181;-92
2024/02/10 04:28:02;;;;;;;0.80;0.40;;;11.60;99.90;;;;;;5068898;23;20264;-94
2024/02/10 04:30:04;;;;;;;0.20;0.17;;;11.70;99.90;;;;;;5044919;23;20222;-93
2024/02/10 04:32:06;;;;;;;1.40;0.63;;;11.80;99.90;;;;;;5068909;23;20608;-92
2024/02/10 04:34:07;;;;;;;0.47;0.40;;;11.90;99.90;;;;;;5044692;23;20245;-94
2024/02/10 04:36:12;;;;;;;1.90;0.70;;;11.70;99.90;;;;;;5044752;23;20161;-93
2024/02/10 04:38:13;;;;;;;0.55;0.30;;;11.70;99.90;;;;;;5044617;23;20178;-93
2024/02/10 04:40:17;;;;;;;1.65;0.65;;;11.40;99.90;;;;;;5021200;23;20166;-94
2024/02/10 04:42:18;;;;;;;4.47;1.10;;;11.30;99.90;;;;;;5068694;23;20245;-93
2024/02/10 04:44:19;;;;;;;1.35;0.65;;;11.20;99.90;;;;;;5045194;23;20154;-95
2024/02/10 04:46:22;;;;;;;1.02;0.30;;;11.30;99.90;;;;;;5044685;23;20253;-93
2024/02/10 04:48:23;;;;;;;1.05;0.43;;;11.10;99.90;;;;;;5044809;23;20186;-94
2024/02/10 04:50:24;;;;;;;3.03;0.75;;;11.10;99.90;;;;;;5045220;23;20163;-93
2024/02/10 04:52:25;;;;;;;2.03;0.52;;;11.00;99.90;;;;;;5044575;23;20154;-94
2024/02/10 04:54:27;;;;;;;0.82;0.43;;;11.10;99.90;;;;;;5068663;23;20168;-92
2024/02/10 04:56:30;;;;;;;1.70;0.95;;;11.20;99.90;;;;;;5045011;23;20178;-93
2024/02/10 04:58:31;;;;;;;2.22;0.43;;;11.30;99.90;;;;;;5045167;23;20174;-95
2024/02/10 05:00:32;;;;;;;1.10;0.50;;;11.30;99.90;;;;;;5044894;23;20150;-94
2024/02/10 05:02:33;;;;;;;0.77;0.28;;;11.30;99.90;;;;;;5044954;23;20226;-93
2024/02/10 05:04:34;;;;;;;1.08;0.60;;;11.30;99.90;;;;;;5044586;23;20162;-93
2024/02/10 05:06:37;;;;;;;3.60;0.40;;;11.40;99.90;;;;;;5046937;23;20158;-93
2024/02/10 05:08:38;;;;;;;3.75;0.35;;;11.20;99.90;;;;;;5044032;23;20186;-94
2024/02/10 05:10:40;;;;;;;1.98;0.57;;;11.40;99.90;;;;;;5044463;23;20166;-94
2024/02/10 05:12:44;;;;;;;1.95;0.70;;;11.30;99.90;;;;;;5044747;23;20161;-93
2024/02/10 05:14:45;;;;;;;0.88;0.50;;;11.40;99.90;;;;;;5045426;23;20645;-94
2024/02/10 05:16:48;;;;;;;0.93;0.45;;;11.50;99.90;;;;;;5045512;23;20158;-93
2024/02/10 05:18:51;;;;;;;1.65;0.40;;;11.50;99.90;;;;;;5044380;23;20158;-93
2024/02/10 05:20:52;;;;;;;3.55;0.30;;;11.60;99.90;;;;;;5045089;23;20159;-93
2024/02/10 05:22:58;;;;;;;0.40;0.30;;;11.60;99.90;;;;;;5046450;23;20616;-93
2024/02/10 05:25:00;;;;;;;0.85;0.43;;;11.70;99.90;;;;;;5046407;23;20162;-93
2024/02/10 05:27:02;;;;;;;0.70;0.43;;;11.60;99.90;;;;;;5046292;23;20190;-94
2024/02/10 05:29:07;;;;;;;1.35;0.40;;;11.50;99.90;;;;;;5046176;23;20749;-93
2024/02/10 05:31:08;;;;;;;2.53;0.60;;;11.60;99.90;;;;;;5045922;23;20609;-93
2024/02/10 05:33:08;;;;;;;1.25;0.63;;;11.50;99.90;;;;;;5045971;23;20177;-92
2024/02/10 05:35:10;;;;;;;5.38;1.15;;;11.40;99.90;;;;;;5046255;23;20181;-93
2024/02/10 05:37:12;;;;;;;2.20;0.75;;;11.40;99.90;;;;;;5070060;23;20542;-94
2024/02/10 05:39:14;;;;;;;0.52;0.50;;;11.60;99.90;;;;;;5046039;23;20610;-93
2024/02/10 05:41:15;;;;;;;1.25;0.40;;;11.80;99.90;;;;;;5046035;23;20159;-93
2024/02/10 05:43:16;;;;;;;0.60;0.45;;;11.70;99.90;;;;;;5022229;23;20155;-93
2024/02/10 05:45:19;;;;;;;1.17;0.60;;;11.70;99.90;;;;;;5045664;23;20190;-92
2024/02/10 05:47:20;;;;;;;0.60;0.50;;;11.70;99.90;;;;;;5070311;23;20184;-94
2024/02/10 05:49:23;;;;;;;1.00;0.50;;;11.50;99.90;;;;;;5045932;23;20637;-94
2024/02/10 05:51:24;;;;;;;1.75;0.90;;;11.40;99.90;;;;;;5046001;23;20616;-92
2024/02/10 05:53:26;;;;;;;1.00;0.50;;;11.40;99.90;;;;;;5045811;23;20154;-93
2024/02/10 05:55:28;;;;;;;0.77;0.40;;;11.40;99.90;;;;;;5046134;23;20185;-94
2024/02/10 05:57:29;;;;;;;2.53;0.45;;;11.40;99.90;;;;;;5045635;23;20197;-93
2024/02/10 05:59:30;;;;;;;0.98;0.55;;;11.40;99.90;;;;;;5045501;23;20188;-93
2024/02/10 06:01:31;;;;;;;1.48;0.65;;;11.30;99.90;;;;;;5046195;23;20158;-94
2024/02/10 06:03:32;;;;;;;0.80;0.40;;;11.30;99.90;;;;;;5045979;23;20159;-94
2024/02/10 06:05:33;;;;;;;2.15;0.57;;;11.40;99.90;;;;;;5070064;23;20161;-94
2024/02/10 06:07:35;;;;;;;2.15;0.63;;;11.50;99.90;;;;;;5046034;23;20178;-96
2024/02/10 06:09:36;;;;;;;1.17;0.50;;;11.60;99.90;;;;;;5046412;23;20197;-93
2024/02/10 06:11:37;;;;;;;0.88;0.45;;;11.70;99.90;;;;;;5046165;23;20154;-94
2024/02/10 06:13:38;;;;;;;1.80;0.77;;;11.70;99.90;;;;;;5070578;23;20177;-94
2024/02/10 06:15:40;;;;;;;1.20;0.70;;;11.60;99.90;;;;;;5046424;23;20158;-94
2024/02/10 06:17:44;;;;;;;1.10;0.60;;;11.40;99.90;;;;;;5045496;23;20182;-93
2024/02/10 06:19:47;;;;;;;0.88;0.65;;;11.40;99.90;;;;;;5047521;23;20237;-94
2024/02/10 06:21:48;;;;;;;0.93;0.50;;;11.40;99.90;;;;;;5045834;23;20202;-94
2024/02/10 06:23:50;;;;;;;2.92;0.55;;;11.30;99.90;;;;;;5070031;23;20624;-92
2024/02/10 06:25:55;;;;;;;7.38;0.80;;;11.20;99.90;;;;;;5045214;23;20229;-93
2024/02/10 06:28:00;;;;;;;4.05;0.70;;;11.20;99.90;;;;;;5069767;23;20199;-95
2024/02/10 06:30:01;;;;;;;1.30;0.47;;;11.10;99.90;;;;;;5069634;23;20173;-93
2024/02/10 06:32:06;;;;;;;2.90;0.70;;;11.10;99.90;;;;;;5045764;23;20170;-94
2024/02/10 06:34:08;;;;;;;2.20;0.80;;;11.20;99.90;;;;;;5045836;23;20546;-93
2024/02/10 06:36:09;;;;;;;4.35;0.50;;;11.30;99.90;;;;;;5069917;23;20158;-94
2024/02/10 06:38:10;;;;;;;2.33;0.60;;;11.20;99.90;;;;;;5045467;23;20234;-93
2024/02/10 06:40:14;;;;;;;0.68;0.40;;;11.20;99.90;;;;;;5046504;23;20621;-93
2024/02/10 06:42:14;;;;;;;3.15;0.80;;;11.10;99.90;;;;;;5045321;23;20159;-93
2024/02/10 06:44:17;;;;;;;4.32;0.65;;;11.10;99.90;;;;;;5045330;23;20162;-94
2024/02/10 06:46:18;;;;;;;2.15;0.80;;;11.00;99.90;;;;;;5045436;23;20163;-94
2024/02/10 06:48:20;;;;;;;4.00;0.88;;;11.00;99.90;;;;;;5069710;23;20482;-94
2024/02/10 06:50:26;;;;;;;2.45;0.80;;;11.10;99.90;;;;;;5045736;23;20586;-93
2024/02/10 06:52:27;;;;;;;2.10;0.50;;;11.10;99.90;;;;;;5045330;23;20233;-93
2024/02/10 06:54:29;;;;;;;1.77;0.70;;;11.20;99.90;;;;;;5069605;23;20164;-94
2024/02/10 06:56:30;;;;;;;1.63;0.80;;;11.20;99.90;;;;;;5045316;23;20153;-94
2024/02/10 06:58:30;;;;;;;2.75;0.50;;;11.40;99.90;;;;;;5045533;23;20668;-94
2024/02/10 07:00:37;;;;;;;1.27;0.77;;;11.50;99.90;;;;;;5069449;23;20158;-93
2024/02/10 07:02:39;;;;;;;1.60;0.70;;;11.60;99.90;;;;;;5045235;23;20162;-93
2024/02/10 07:04:41;;;;;;;3.75;0.73;;;11.70;99.90;;;;;;5045675;23;20479;-94
2024/02/10 07:06:41;;;;;;;2.33;0.60;;;11.80;99.90;;;;;;5045403;23;20162;-93
2024/02/10 07:08:43;;;;;;;1.92;1.08;;;11.80;99.90;;;;;;5044892;23;20202;-93
2024/02/10 07:10:46;;;;;;;3.90;0.93;;;11.90;99.90;;;;;;5069333;23;20242;-94
2024/02/10 07:12:49;;;;;;;1.85;0.70;;;11.90;99.90;;;;;;5069599;23;20181;-95
2024/02/10 07:14:52;;;;;;;2.53;0.68;;;11.80;99.90;;;;;;5045768;23;20201;-94
2024/02/10 07:16:55;;;;;;;3.08;0.70;;;11.80;99.90;;;;;;5045468;23;20502;-93
2024/02/10 07:18:55;;;;;;;5.28;0.70;;;11.70;99.90;;;;;;5045607;23;20506;-94
2024/02/10 07:20:59;;;;;;;4.63;0.77;;;11.50;99.90;;;;;;5045265;23;20158;-94
2024/02/10 07:23:03;;;;;;;3.15;0.93;;;11.70;99.90;;;;;;5045796;23;20645;-94
2024/02/10 07:25:08;;;;;;;1.23;0.90;;;11.80;99.90;;;;;;5069590;23;20609;-94
2024/02/10 07:27:14;;;;;;;7.22;1.27;;;11.60;99.90;;;;;;5045522;23;20262;-94
2024/02/10 07:29:15;;;;;;;2.30;1.00;;;11.70;99.90;;;;;;5046337;23;20294;-93
2024/02/10 07:31:16;;;;;;;2.65;0.93;;;11.50;99.90;;;;;;5045192;23;20158;-93
2024/02/10 07:33:18;;;;;;;2.50;1.23;;;11.70;99.90;;;;;;5044925;23;20165;-94
2024/02/10 07:35:22;;;;;;;1.40;0.63;;;11.90;99.90;;;;;;5045141;23;20154;-94
2024/02/10 07:37:24;;;;;;;10.75;1.05;;;11.90;99.90;;;;;;5044908;23;20178;-93
2024/02/10 07:39:25;;;;;;;1.90;0.70;;;11.90;99.90;;;;;;5045800;23;20493;-94
2024/02/10 07:41:26;;;;;;;1.92;0.80;;;11.70;99.90;;;;;;5045634;23;20200;-93
2024/02/10 07:43:32;;;;;;;2.42;0.95;;;11.80;99.90;;;;;;5044962;23;20159;-93
2024/02/10 07:45:33;;;;;;;1.58;0.73;;;11.70;99.90;;;;;;5069299;23;20253;-93
2024/02/10 07:47:34;;;;;;;1.92;1.05;;;11.70;99.90;;;;;;5045576;23;20170;-93
2024/02/10 07:49:35;;;;;;;3.25;1.35;;;11.70;99.90;;;;;;5044956;23;20197;-93
2024/02/10 07:51:39;;;;;;;2.42;1.33;;;11.80;99.90;;;;;;5045275;23;20229;-94
2024/02/10 07:53:45;;;;;;;2.13;1.08;;;11.60;99.90;;;;;;5045020;23;20633;-93
2024/02/10 07:55:47;;;;;;;1.30;0.73;;;11.70;99.90;;;;;;5044822;23;20237;-94
2024/02/10 07:57:48;;;;;;;6.35;1.10;;;11.50;99.90;;;;;;5045541;23;20178;-95
2024/02/10 07:59:54;;;;;;;4.20;1.05;;;11.60;99.90;;;;;;5044642;23;20164;-94
2024/02/10 08:01:55;;;;;;;1.45;0.88;;;11.70;99.90;;;;;;5046631;23;20618;-94
2024/02/10 08:03:57;;;;;;;2.10;0.90;;;11.80;99.90;;;;;;5046313;23;20162;-94
2024/02/10 08:05:58;;;;;;;1.23;0.90;;;12.00;99.90;;;;;;5045247;23;20207;-94
2024/02/10 08:08:00;;;;;;;3.03;1.02;;;12.00;99.90;;;;;;5044603;23;20269;-94
2024/02/10 08:10:01;;;;;;;2.13;0.75;;;12.00;99.90;;;;;;5045304;23;20652;-93
2024/02/10 08:12:03;;;;;;;4.18;1.00;;;12.20;99.90;;;;;;5044860;23;20155;-93
2024/02/10 08:14:05;;;;;;;2.92;0.80;;;12.20;99.90;;;;;;5069623;23;20160;-93
2024/02/10 08:16:07;;;;;;;1.77;0.88;;;12.20;99.90;;;;;;5045752;23;20254;-93
2024/02/10 08:18:09;;;;;;;3.88;1.65;;;12.20;99.90;;;;;;5044777;23;20210;-93
2024/02/10 08:20:10;;;;;;;3.65;1.45;;;12.30;99.90;;;;;;5044750;23;20235;-94
2024/02/10 08:22:13;;;;;;;1.45;0.70;;;12.40;99.90;;;;;;5044918;23;20158;-94
2024/02/10 08:24:14;;;;;;;1.15;0.90;;;12.40;99.90;;;;;;5045283;23;20154;-95
2024/02/10 08:26:19;;;;;;;4.18;0.70;;;12.30;99.90;;;;;;5044680;23;20210;-93
2024/02/10 08:28:20;;;;;;;1.40;0.85;;;12.40;99.90;;;;;;5069205;23;20215;-94
2024/02/10 08:30:20;;;;;;;2.97;0.93;;;12.50;99.90;;;;;;5069993;23;20169;-94
2024/02/10 08:32:22;;;;;;;3.67;1.00;;;12.50;99.90;;;;;;5045223;23;20189;-93
2024/02/10 08:34:23;;;;;;;3.03;1.20;;;12.60;99.90;;;;;;5069946;23;20157;-93
2024/02/10 08:36:26;;;;;;;1.70;0.90;;;12.50;99.90;;;;;;5045576;23;20154;-94
2024/02/10 08:38:28;;;;;;;2.47;1.33;;;12.40;99.90;;;;;;5044750;23;20181;-95
2024/02/10 08:40:29;;;;;;;1.98;0.88;;;12.60;99.90;;;;;;5045470;23;20158;-94
2024/02/10 08:42:30;;;;;;;5.00;1.48;;;12.60;99.90;;;;;;5045674;23;20154;-94
2024/02/10 08:44:32;;;;;;;4.35;1.02;;;12.60;99.90;;;;;;5044975;23;20161;-94
2024/02/10 08:46:33;;;;;;;2.53;1.10;;;12.60;99.90;;;;;;5044842;23;20162;-94
2024/02/10 08:48:34;;;;;;;2.03;1.20;;;12.60;99.90;;;;;;5044560;23;20194;-94
2024/02/10 08:50:35;;;;;;;1.75;1.00;;;12.70;99.90;;;;;;5044928;23;20154;-94
2024/02/10 08:52:37;;;;;;;2.80;1.33;;;12.60;99.90;;;;;;5046125;23;20516;-94
2024/02/10 08:54:39;;;;;;;1.75;0.68;;;12.60;99.90;;;;;;5046458;23;20615;-94
2024/02/10 08:56:44;;;;;;;2.13;1.10;;;12.50;99.90;;;;;;5045558;23;20535;-94
2024/02/10 08:58:48;;;;;;;3.88;0.95;;;12.50;99.90;;;;;;5046745;23;20163;-93
2024/02/10 09:00:49;;;;;;;3.15;0.90;;;12.60;99.90;;;;;;5046690;23;20676;-94
2024/02/10 09:02:50;;;;;;;3.08;0.82;;;12.80;99.90;;;;;;5070644;23;20153;-94
2024/02/10 09:04:53;;;;;;;1.67;1.20;;;12.80;99.90;;;;;;5045893;23;20210;-92
2024/02/10 09:06:54;;;;;;;4.18;0.70;;;12.70;99.90;;;;;;5070602;23;20607;-90
2024/02/10 09:08:55;;;;;;;2.10;0.90;;;12.70;99.90;;;;;;5073747;23;20177;-91
2024/02/10 09:10:56;;;;;;;2.33;1.25;;;12.80;99.90;;;;;;5072501;23;20168;-91
2024/02/10 09:12:57;;;;;;;1.55;0.77;;;12.90;99.90;;;;;;5073352;23;20193;-90
2024/02/10 09:14:58;;;;;;;2.25;0.90;;;12.90;99.90;;;;;;5050932;23;20585;-91
2024/02/10 09:16:59;;;;;;;1.75;0.80;;;12.90;99.90;;;;;;5049154;23;20154;-91
2024/02/10 09:19:00;;;;;;;1.60;0.93;;;12.90;99.90;;;;;;5050045;23;20138;-91
2024/02/10 09:21:02;;;;;;;4.47;1.15;;;12.90;99.90;;;;;;5051220;23;20162;-93
2024/02/10 09:23:11;;;;;;;1.85;0.73;;;12.90;99.90;;;;;;5073829;23;20153;-90
2024/02/10 09:25:12;;;;;;;1.92;0.93;;;12.80;99.90;;;;;;5048868;23;20169;-90
2024/02/10 09:27:13;;;;;;;1.40;0.80;;;13.00;99.90;;;;;;5048845;23;20648;-91
2024/02/10 09:29:14;;;;;;;1.98;1.02;;;13.10;99.90;;;;;;5050640;23;20190;-91
2024/02/10 09:31:15;;;;;;;3.28;1.23;;;13.10;99.90;;;;;;5051947;23;20157;-90
2024/02/10 09:33:21;;;;;;;2.22;1.33;;;13.10;99.90;;;;;;5079411;23;20154;-90
2024/02/10 09:35:23;;;;;;;1.63;0.98;;;13.10;99.90;;;;;;5049784;23;20189;-90
2024/02/10 09:37:25;;;;;;;1.55;1.00;;;13.10;99.90;;;;;;5053936;23;20600;-90
2024/02/10 09:39:26;;;;;;;5.28;1.25;;;12.90;99.90;;;;;;5073802;23;20143;-90
2024/02/10 09:41:27;;;;;;;1.83;0.95;;;12.90;99.90;;;;;;5050149;23;20154;-91
2024/02/10 09:43:32;;;;;;;3.80;1.23;;;13.00;99.90;;;;;;5050758;23;20629;-90
2024/02/10 09:45:35;;;;;;;1.88;1.00;;;13.10;99.90;;;;;;5048606;23;20224;-90
2024/02/10 09:47:37;;;;;;;2.72;1.10;;;13.20;99.90;;;;;;5051241;23;20186;-90
2024/02/10 09:49:39;;;;;;;1.90;1.23;;;13.20;99.90;;;;;;5057396;23;20174;-89
2024/02/10 09:51:43;;;;;;;4.03;1.10;;;13.00;99.90;;;;;;5071732;23;20164;-91
2024/02/10 09:53:44;;;;;;;4.32;1.23;;;13.00;99.90;;;;;;5046084;23;20162;-91
2024/02/10 09:55:46;;;;;;;5.13;1.10;;;13.20;99.90;;;;;;5046428;23;20158;-90
2024/02/10 09:57:48;;;;;;;2.42;0.95;;;13.40;99.90;;;;;;5046291;23;20182;-90
2024/02/10 09:59:49;;;;;;;1.65;0.90;;;13.60;99.90;;;;;;5046028;23;20162;-91
2024/02/10 10:01:58;;;;;;;13.85;1.23;;;13.40;99.90;;;;;;5046679;23;20252;-91
2024/02/10 10:04:11;;;;;;;5.30;1.10;;;13.50;99.90;;;;;;5072066;23;20158;-91
2024/02/10 10:06:12;;;;;;;2.50;1.02;;;13.60;99.90;;;;;;5048044;23;20249;-90
2024/02/10 10:08:14;;;;;;;5.38;1.50;;;13.60;99.90;;;;;;5072295;23;20173;-90
2024/02/10 10:10:19;;;;;;;6.68;1.48;;;13.60;99.90;;;;;;5073943;23;20256;-90
2024/02/10 10:12:20;;;;;;;1.52;0.93;;;13.60;99.90;;;;;;5072277;23;20162;-90
2024/02/10 10:14:21;;;;;;;2.50;1.20;;;13.60;99.90;;;;;;5047138;23;20225;-90
2024/02/10 10:16:22;;;;;;;4.80;1.05;;;13.40;99.90;;;;;;5023698;23;20246;-91
2024/02/10 10:18:24;;;;;;;3.95;1.25;;;13.30;99.90;;;;;;5046492;23;20617;-90
2024/02/10 10:20:25;;;;;;;5.38;0.98;;;13.40;99.90;;;;;;5048491;23;20236;-91
2024/02/10 10:22:27;;;;;;;2.95;1.40;;;13.60;99.90;;;;;;5049018;23;20210;-90
2024/02/10 10:24:28;;;;;;;2.47;1.42;;;13.60;99.90;;;;;;5048760;23;20624;-90
2024/02/10 10:26:31;;;;;;;2.58;1.15;;;13.80;99.90;;;;;;5045677;23;20166;-91
2024/02/10 10:28:33;;;;;;;2.95;1.02;;;13.80;99.90;;;;;;5047659;23;20229;-92
2024/02/10 10:30:37;;;;;;;1.65;0.70;;;13.90;99.90;;;;;;5082836;23;20133;-91
2024/02/10 10:32:42;;;;;;;2.50;1.25;;;14.10;99.90;;;;;;5083297;23;20221;-91
2024/02/10 10:34:44;;;;;;;2.42;1.10;;;14.10;99.90;;;;;;5076466;23;20181;-93